sensor_id;sensor_type;location;lat;lon;timestamp;pressure;altitude;pressure_sealevel;temperature;humidity
9523;BME280;63165;43.016;25.784;2022-09-27T00:01:23;99072.09;;;18.43;89.80
9523;BME280;63165;43.016;25.784;2022-09-27T00:03:52;99073.91;;;18.42;89.49
9523;BME280;63165;43.016;25.784;2022-09-27T00:06:24;99077.59;;;18.40;90.17
9523;BME280;63165;43.016;25.784;2022-09-27T00:08:52;99058.97;;;18.27;90.68
9523;BME280;63165;43.016;25.784;2022-09-27T00:11:24;99074.94;;;18.40;90.00
9523;BME280;63165;43.016;25.784;2022-09-27T00:13:53;99075.91;;;18.39;89.89
9523;BME280;63165;43.016;25.784;2022-09-27T00:16:22;99066.34;;;18.36;90.73
9523;BME280;63165;43.016;25.784;2022-09-27T00:18:50;99068.97;;;18.36;91.35
9523;BME280;63165;43.016;25.784;2022-09-27T00:21:18;99069.09;;;18.35;91.93
9523;BME280;63165;43.016;25.784;2022-09-27T00:23:45;99062.84;;;18.36;91.45
9523;BME280;63165;43.016;25.784;2022-09-27T00:26:12;99042.91;;;18.30;92.20
9523;BME280;63165;43.016;25.784;2022-09-27T00:28:40;99059.25;;;18.37;92.91
9523;BME280;63165;43.016;25.784;2022-09-27T00:31:17;99055.56;;;18.39;94.15
9523;BME280;63165;43.016;25.784;2022-09-27T00:33:47;99055.47;;;18.41;93.40
9523;BME280;63165;43.016;25.784;2022-09-27T00:36:14;99047.41;;;18.42;94.45
9523;BME280;63165;43.016;25.784;2022-09-27T00:38:42;99049.19;;;18.42;94.46
9523;BME280;63165;43.016;25.784;2022-09-27T00:41:13;99051.00;;;18.41;95.04
9523;BME280;63165;43.016;25.784;2022-09-27T00:43:46;99042.22;;;18.41;95.27
9523;BME280;63165;43.016;25.784;2022-09-27T00:46:20;99044.88;;;18.41;95.33
9523;BME280;63165;43.016;25.784;2022-09-27T00:48:59;99035.31;;;18.38;95.67
9523;BME280;63165;43.016;25.784;2022-09-27T00:51:30;99036.19;;;18.39;95.84
9523;BME280;63165;43.016;25.784;2022-09-27T00:54:00;99030.97;;;18.37;95.81
9523;BME280;63165;43.016;25.784;2022-09-27T00:56:29;99030.13;;;18.37;95.50
9523;BME280;63165;43.016;25.784;2022-09-27T00:59:01;99032.13;;;18.33;96.40
9523;BME280;63165;43.016;25.784;2022-09-27T01:01:30;99032.13;;;18.33;95.97
9523;BME280;63165;43.016;25.784;2022-09-27T01:04:02;99023.63;;;18.28;96.57
9523;BME280;63165;43.016;25.784;2022-09-27T01:06:32;99016.84;;;18.24;95.86
9523;BME280;63165;43.016;25.784;2022-09-27T01:09:00;99018.75;;;18.22;95.61
9523;BME280;63165;43.016;25.784;2022-09-27T01:11:45;99004.75;;;18.20;95.14
9523;BME280;63165;43.016;25.784;2022-09-27T01:14:31;99013.81;;;18.16;95.82
9523;BME280;63165;43.016;25.784;2022-09-27T01:17:12;98995.53;;;17.98;95.44
9523;BME280;63165;43.016;25.784;2022-09-27T01:23:08;98996.66;;;18.09;95.94
9523;BME280;63165;43.016;25.784;2022-09-27T01:25:54;99021.22;;;18.11;96.12
9523;BME280;63165;43.016;25.784;2022-09-27T01:28:37;99008.94;;;17.95;96.15
9523;BME280;63165;43.016;25.784;2022-09-27T01:31:16;99021.25;;;17.96;96.34
9523;BME280;63165;43.016;25.784;2022-09-27T01:33:55;99032.97;;;17.92;97.30
9523;BME280;63165;43.016;25.784;2022-09-27T01:36:27;99022.59;;;17.89;98.10
9523;BME280;63165;43.016;25.784;2022-09-27T01:39:08;99028.94;;;17.87;98.67
9523;BME280;63165;43.016;25.784;2022-09-27T01:41:44;98994.69;;;17.69;99.06
9523;BME280;63165;43.016;25.784;2022-09-27T01:44:19;99013.06;;;17.87;99.53
9523;BME280;63165;43.016;25.784;2022-09-27T01:46:54;99021.84;;;17.87;99.21
9523;BME280;63165;43.016;25.784;2022-09-27T01:49:26;99008.00;;;17.82;99.29
9523;BME280;63165;43.016;25.784;2022-09-27T01:51:59;99008.59;;;17.87;99.40
9523;BME280;63165;43.016;25.784;2022-09-27T01:54:34;99014.03;;;17.84;99.35
9523;BME280;63165;43.016;25.784;2022-09-27T01:57:05;99024.75;;;17.82;99.37
9523;BME280;63165;43.016;25.784;2022-09-27T01:59:40;99021.81;;;17.73;100.00
9523;BME280;63165;43.016;25.784;2022-09-27T02:02:11;99023.13;;;17.80;100.00
9523;BME280;63165;43.016;25.784;2022-09-27T02:04:41;99021.44;;;17.79;100.00
9523;BME280;63165;43.016;25.784;2022-09-27T02:07:15;99019.72;;;17.78;100.00
9523;BME280;63165;43.016;25.784;2022-09-27T02:09:48;99025.88;;;17.78;100.00
9523;BME280;63165;43.016;25.784;2022-09-27T02:12:20;99026.00;;;17.77;100.00
9523;BME280;63165;43.016;25.784;2022-09-27T02:14:52;99026.16;;;17.74;100.00
9523;BME280;63165;43.016;25.784;2022-09-27T02:17:28;99021.63;;;17.76;100.00
9523;BME280;63165;43.016;25.784;2022-09-27T02:20:02;99028.50;;;17.78;100.00
9523;BME280;63165;43.016;25.784;2022-09-27T02:22:35;99026.75;;;17.79;100.00
9523;BME280;63165;43.016;25.784;2022-09-27T02:25:11;99018.69;;;17.80;100.00
9523;BME280;63165;43.016;25.784;2022-09-27T02:27:46;99015.09;;;17.81;100.00
9523;BME280;63165;43.016;25.784;2022-09-27T02:30:16;99020.31;;;17.83;100.00
9523;BME280;63165;43.016;25.784;2022-09-27T02:32:45;99008.09;;;17.80;100.00
9523;BME280;63165;43.016;25.784;2022-09-27T02:35:17;99009.06;;;17.79;100.00
9523;BME280;63165;43.016;25.784;2022-09-27T02:37:46;99011.88;;;17.76;100.00
9523;BME280;63165;43.016;25.784;2022-09-27T02:40:14;99015.28;;;17.78;100.00
9523;BME280;63165;43.016;25.784;2022-09-27T02:42:42;99020.69;;;17.77;100.00
9523;BME280;63165;43.016;25.784;2022-09-27T02:45:11;99022.56;;;17.75;100.00
9523;BME280;63165;43.016;25.784;2022-09-27T02:51:00;99009.34;;;17.75;100.00
9523;BME280;63165;43.016;25.784;2022-09-27T02:53:43;99012.75;;;17.77;100.00
9523;BME280;63165;43.016;25.784;2022-09-27T02:56:17;99001.22;;;17.78;100.00
9523;BME280;63165;43.016;25.784;2022-09-27T02:58:57;98996.66;;;17.80;100.00
9523;BME280;63165;43.016;25.784;2022-09-27T03:01:33;98991.47;;;17.78;100.00
9523;BME280;63165;43.016;25.784;2022-09-27T03:04:08;98990.81;;;17.75;100.00
9523;BME280;63165;43.016;25.784;2022-09-27T03:06:40;98991.03;;;17.72;100.00
9523;BME280;63165;43.016;25.784;2022-09-27T03:09:16;98995.84;;;17.79;100.00
9523;BME280;63165;43.016;25.784;2022-09-27T03:11:44;99005.84;;;17.74;100.00
9523;BME280;63165;43.016;25.784;2022-09-27T03:14:11;98994.50;;;17.72;100.00
9523;BME280;63165;43.016;25.784;2022-09-27T03:16:39;98991.03;;;17.72;100.00
9523;BME280;63165;43.016;25.784;2022-09-27T03:19:07;98992.84;;;17.71;100.00
9523;BME280;63165;43.016;25.784;2022-09-27T03:21:35;98991.13;;;17.70;100.00
9523;BME280;63165;43.016;25.784;2022-09-27T03:24:04;98990.47;;;17.66;100.00
9523;BME280;63165;43.016;25.784;2022-09-27T03:26:31;98987.06;;;17.64;100.00
9523;BME280;63165;43.016;25.784;2022-09-27T03:28:58;99000.88;;;17.70;100.00
9523;BME280;63165;43.016;25.784;2022-09-27T03:31:25;99005.28;;;17.69;100.00
9523;BME280;63165;43.016;25.784;2022-09-27T03:33:53;98993.28;;;17.63;100.00
9523;BME280;63165;43.016;25.784;2022-09-27T03:36:20;99005.50;;;17.66;100.00
9523;BME280;63165;43.016;25.784;2022-09-27T03:38:47;99001.03;;;17.66;100.00
9523;BME280;63165;43.016;25.784;2022-09-27T03:41:16;98982.63;;;17.65;100.00
9523;BME280;63165;43.016;25.784;2022-09-27T03:43:43;98981.38;;;17.71;100.00
9523;BME280;63165;43.016;25.784;2022-09-27T03:46:10;98963.75;;;17.57;100.00
9523;BME280;63165;43.016;25.784;2022-09-27T03:48:37;98973.44;;;17.71;100.00
9523;BME280;63165;43.016;25.784;2022-09-27T03:51:06;98965.91;;;17.64;100.00
9523;BME280;63165;43.016;25.784;2022-09-27T03:53:34;98952.78;;;17.63;99.54
9523;BME280;63165;43.016;25.784;2022-09-27T03:56:01;98964.56;;;17.72;98.81
9523;BME280;63165;43.016;25.784;2022-09-27T03:58:30;98967.31;;;17.70;99.94
9523;BME280;63165;43.016;25.784;2022-09-27T04:00:57;98977.91;;;17.70;99.94
9523;BME280;63165;43.016;25.784;2022-09-27T04:03:25;98984.41;;;17.64;100.00
9523;BME280;63165;43.016;25.784;2022-09-27T04:05:53;98970.94;;;17.55;100.00
9523;BME280;63165;43.016;25.784;2022-09-27T04:08:20;98985.66;;;17.59;100.00
9523;BME280;63165;43.016;25.784;2022-09-27T04:10:48;98983.00;;;17.59;100.00
9523;BME280;63165;43.016;25.784;2022-09-27T04:13:15;98967.16;;;17.59;100.00
9523;BME280;63165;43.016;25.784;2022-09-27T04:15:44;98952.91;;;17.47;100.00
9523;BME280;63165;43.016;25.784;2022-09-27T04:18:14;98962.69;;;17.59;100.00
9523;BME280;63165;43.016;25.784;2022-09-27T04:20:41;98965.16;;;17.62;100.00
9523;BME280;63165;43.016;25.784;2022-09-27T04:23:09;98958.06;;;17.63;100.00
9523;BME280;63165;43.016;25.784;2022-09-27T04:25:36;98957.41;;;17.59;100.00
9523;BME280;63165;43.016;25.784;2022-09-27T04:28:04;98959.88;;;17.62;100.00
9523;BME280;63165;43.016;25.784;2022-09-27T04:30:32;98962.50;;;17.62;100.00
9523;BME280;63165;43.016;25.784;2022-09-27T04:33:00;98954.56;;;17.62;100.00
9523;BME280;63165;43.016;25.784;2022-09-27T04:35:28;98940.78;;;17.57;100.00
9523;BME280;63165;43.016;25.784;2022-09-27T04:38:12;98923.41;;;17.53;100.00
9523;BME280;63165;43.016;25.784;2022-09-27T04:40:39;98934.56;;;17.58;100.00
9523;BME280;63165;43.016;25.784;2022-09-27T04:43:07;98909.34;;;17.53;100.00
9523;BME280;63165;43.016;25.784;2022-09-27T04:45:34;98918.69;;;17.58;100.00
9523;BME280;63165;43.016;25.784;2022-09-27T04:48:03;98918.78;;;17.57;100.00
9523;BME280;63165;43.016;25.784;2022-09-27T04:50:31;98899.63;;;17.53;100.00
9523;BME280;63165;43.016;25.784;2022-09-27T04:52:58;98889.88;;;17.54;100.00
9523;BME280;63165;43.016;25.784;2022-09-27T04:55:26;98851.22;;;17.24;100.00
9523;BME280;63165;43.016;25.784;2022-09-27T04:57:53;98896.00;;;17.54;100.00
9523;BME280;63165;43.016;25.784;2022-09-27T05:00:23;98894.25;;;17.55;100.00
9523;BME280;63165;43.016;25.784;2022-09-27T05:02:50;98888.72;;;17.58;100.00
9523;BME280;63165;43.016;25.784;2022-09-27T05:05:19;98886.00;;;17.59;100.00
9523;BME280;63165;43.016;25.784;2022-09-27T05:07:46;98886.84;;;17.60;100.00
9523;BME280;63165;43.016;25.784;2022-09-27T05:10:14;98893.66;;;17.64;100.00
9523;BME280;63165;43.016;25.784;2022-09-27T05:12:41;98903.28;;;17.65;100.00
9523;BME280;63165;43.016;25.784;2022-09-27T05:15:09;98877.72;;;17.51;100.00
9523;BME280;63165;43.016;25.784;2022-09-27T05:17:36;98866.19;;;17.52;100.00
9523;BME280;63165;43.016;25.784;2022-09-27T05:20:04;98885.50;;;17.67;100.00
9523;BME280;63165;43.016;25.784;2022-09-27T05:22:33;98899.09;;;17.75;100.00
9523;BME280;63165;43.016;25.784;2022-09-27T05:25:00;98902.50;;;17.77;100.00
9523;BME280;63165;43.016;25.784;2022-09-27T05:27:28;98894.66;;;17.76;100.00
9523;BME280;63165;43.016;25.784;2022-09-27T05:29:55;98870.44;;;17.82;100.00
9523;BME280;63165;43.016;25.784;2022-09-27T05:32:25;98868.47;;;17.85;100.00
9523;BME280;63165;43.016;25.784;2022-09-27T05:34:52;98868.91;;;17.92;100.00
9523;BME280;63165;43.016;25.784;2022-09-27T05:37:19;98864.81;;;18.01;100.00
9523;BME280;63165;43.016;25.784;2022-09-27T05:39:48;98869.81;;;18.06;100.00
9523;BME280;63165;43.016;25.784;2022-09-27T05:42:15;98833.28;;;17.83;100.00
9523;BME280;63165;43.016;25.784;2022-09-27T05:44:43;98849.16;;;17.98;100.00
9523;BME280;63165;43.016;25.784;2022-09-27T05:47:12;98880.09;;;18.23;100.00
9523;BME280;63165;43.016;25.784;2022-09-27T05:49:39;98873.97;;;18.22;100.00
9523;BME280;63165;43.016;25.784;2022-09-27T05:52:07;98882.22;;;18.31;100.00
9523;BME280;63165;43.016;25.784;2022-09-27T05:54:34;98880.13;;;18.36;100.00
9523;BME280;63165;43.016;25.784;2022-09-27T05:57:04;98865.81;;;18.38;100.00
9523;BME280;63165;43.016;25.784;2022-09-27T05:59:33;98848.88;;;18.28;100.00
9523;BME280;63165;43.016;25.784;2022-09-27T06:02:00;98887.25;;;18.48;100.00
9523;BME280;63165;43.016;25.784;2022-09-27T06:04:28;98884.28;;;18.53;100.00
9523;BME280;63165;43.016;25.784;2022-09-27T06:06:55;98875.72;;;18.62;100.00
9523;BME280;63165;43.016;25.784;2022-09-27T06:09:23;98870.72;;;18.70;100.00
9523;BME280;63165;43.016;25.784;2022-09-27T06:11:51;98854.63;;;18.60;100.00
9523;BME280;63165;43.016;25.784;2022-09-27T06:14:20;98882.50;;;18.79;100.00
9523;BME280;63165;43.016;25.784;2022-09-27T06:16:47;98881.47;;;18.81;100.00
9523;BME280;63165;43.016;25.784;2022-09-27T06:19:15;98859.81;;;18.75;100.00
9523;BME280;63165;43.016;25.784;2022-09-27T06:21:43;98882.31;;;18.95;100.00
9523;BME280;63165;43.016;25.784;2022-09-27T06:24:10;98901.50;;;18.98;100.00
9523;BME280;63165;43.016;25.784;2022-09-27T06:26:37;98902.97;;;19.03;100.00
9523;BME280;63165;43.016;25.784;2022-09-27T06:29:04;98882.19;;;18.96;100.00
9523;BME280;63165;43.016;25.784;2022-09-27T06:31:34;98895.97;;;19.14;100.00
9523;BME280;63165;43.016;25.784;2022-09-27T06:34:02;98889.28;;;19.22;100.00
9523;BME280;63165;43.016;25.784;2022-09-27T06:36:29;98877.69;;;19.23;100.00
9523;BME280;63165;43.016;25.784;2022-09-27T06:38:57;98885.53;;;19.37;99.91
9523;BME280;63165;43.016;25.784;2022-09-27T06:41:26;98869.41;;;19.40;98.36
9523;BME280;63165;43.016;25.784;2022-09-27T06:43:53;98888.66;;;19.55;98.03
9523;BME280;63165;43.016;25.784;2022-09-27T06:46:20;98880.16;;;19.63;97.00
9523;BME280;63165;43.016;25.784;2022-09-27T06:48:49;98869.31;;;19.66;97.19
9523;BME280;63165;43.016;25.784;2022-09-27T06:51:17;98874.47;;;19.80;97.25
9523;BME280;63165;43.016;25.784;2022-09-27T06:53:44;98853.88;;;19.84;96.29
9523;BME280;63165;43.016;25.784;2022-09-27T06:56:11;98836.13;;;19.84;95.75
9523;BME280;63165;43.016;25.784;2022-09-27T06:58:39;98853.69;;;19.98;95.23
9523;BME280;63165;43.016;25.784;2022-09-27T07:01:26;98856.59;;;20.06;94.35
9523;BME280;63165;43.016;25.784;2022-09-27T07:03:55;98850.72;;;20.14;93.49
9523;BME280;63165;43.016;25.784;2022-09-27T07:06:23;98828.44;;;20.28;93.57
9523;BME280;63165;43.016;25.784;2022-09-27T07:08:51;98823.59;;;20.33;92.15
9523;BME280;63165;43.016;25.784;2022-09-27T07:11:20;98829.53;;;20.48;91.18
9523;BME280;63165;43.016;25.784;2022-09-27T07:13:48;98828.84;;;20.57;91.43
9523;BME280;63165;43.016;25.784;2022-09-27T07:16:16;98812.19;;;20.66;90.02
9523;BME280;63165;43.016;25.784;2022-09-27T07:18:46;98802.06;;;20.60;89.79
9523;BME280;63165;43.016;25.784;2022-09-27T07:21:15;98829.47;;;20.83;88.30
9523;BME280;63165;43.016;25.784;2022-09-27T07:23:42;98831.41;;;20.92;87.59
9523;BME280;63165;43.016;25.784;2022-09-27T07:26:10;98823.31;;;20.94;87.21
9523;BME280;63165;43.016;25.784;2022-09-27T07:28:37;98819.72;;;21.06;87.44
9523;BME280;63165;43.016;25.784;2022-09-27T07:31:08;98817.66;;;21.10;86.66
9523;BME280;63165;43.016;25.784;2022-09-27T07:33:36;98840.59;;;21.11;85.23
9523;BME280;63165;43.016;25.784;2022-09-27T07:36:08;98837.94;;;21.11;84.21
9523;BME280;63165;43.016;25.784;2022-09-27T07:38:37;98825.75;;;21.08;83.30
9523;BME280;63165;43.016;25.784;2022-09-27T07:41:05;98836.13;;;21.11;83.96
9523;BME280;63165;43.016;25.784;2022-09-27T07:43:33;98825.63;;;21.10;84.59
9523;BME280;63165;43.016;25.784;2022-09-27T07:46:00;98833.72;;;21.20;84.14
9523;BME280;63165;43.016;25.784;2022-09-27T07:48:27;98826.94;;;21.27;83.49
9523;BME280;63165;43.016;25.784;2022-09-27T07:50:55;98820.88;;;21.36;83.58
9523;BME280;63165;43.016;25.784;2022-09-27T07:53:22;98820.47;;;21.41;84.04
9523;BME280;63165;43.016;25.784;2022-09-27T07:55:51;98825.09;;;21.50;82.68
9523;BME280;63165;43.016;25.784;2022-09-27T07:58:19;98823.63;;;21.57;82.57
9523;BME280;63165;43.016;25.784;2022-09-27T08:01:07;98825.06;;;21.61;82.82
9523;BME280;63165;43.016;25.784;2022-09-27T08:03:34;98823.59;;;21.68;82.32
9523;BME280;63165;43.016;25.784;2022-09-27T08:06:02;98828.78;;;21.70;82.15
9523;BME280;63165;43.016;25.784;2022-09-27T08:08:30;98829.88;;;21.67;81.38
9523;BME280;63165;43.016;25.784;2022-09-27T08:10:58;98826.44;;;21.77;81.66
9523;BME280;63165;43.016;25.784;2022-09-27T08:13:25;98820.75;;;21.81;82.69
9523;BME280;63165;43.016;25.784;2022-09-27T08:16:00;98818.69;;;21.85;82.46
9523;BME280;63165;43.016;25.784;2022-09-27T08:18:27;98815.50;;;21.91;83.01
9523;BME280;63165;43.016;25.784;2022-09-27T08:20:55;98811.38;;;21.98;82.50
9523;BME280;63165;43.016;25.784;2022-09-27T08:23:23;98809.28;;;22.02;82.13
9523;BME280;63165;43.016;25.784;2022-09-27T08:25:51;98810.19;;;22.12;81.81
9523;BME280;63165;43.016;25.784;2022-09-27T08:28:20;98803.38;;;22.19;81.69
9523;BME280;63165;43.016;25.784;2022-09-27T08:30:48;98810.13;;;22.23;81.71
9523;BME280;63165;43.016;25.784;2022-09-27T08:33:15;98803.91;;;22.34;81.72
9523;BME280;63165;43.016;25.784;2022-09-27T08:35:43;98801.59;;;22.41;81.53
9523;BME280;63165;43.016;25.784;2022-09-27T08:38:10;98795.47;;;22.50;81.44
9523;BME280;63165;43.016;25.784;2022-09-27T08:40:51;98784.56;;;22.63;81.28
9523;BME280;63165;43.016;25.784;2022-09-27T08:43:33;98779.09;;;22.64;81.67
9523;BME280;63165;43.016;25.784;2022-09-27T08:46:09;98791.81;;;22.82;81.21
9523;BME280;63165;43.016;25.784;2022-09-27T08:48:40;98782.69;;;22.84;81.02
9523;BME280;63165;43.016;25.784;2022-09-27T08:51:10;98770.63;;;22.90;80.12
9523;BME280;63165;43.016;25.784;2022-09-27T08:53:42;98785.75;;;23.11;79.90
9523;BME280;63165;43.016;25.784;2022-09-27T08:56:13;98782.25;;;23.20;79.05
9523;BME280;63165;43.016;25.784;2022-09-27T08:58:51;98772.44;;;23.30;78.79
9523;BME280;63165;43.016;25.784;2022-09-27T09:01:20;98774.28;;;23.39;78.33
9523;BME280;63165;43.016;25.784;2022-09-27T09:03:49;98761.81;;;23.50;77.13
9523;BME280;63165;43.016;25.784;2022-09-27T09:06:22;98765.03;;;23.63;76.32
9523;BME280;63165;43.016;25.784;2022-09-27T09:09:01;98755.63;;;23.69;75.78
9523;BME280;63165;43.016;25.784;2022-09-27T09:11:40;98756.59;;;23.77;75.48
9523;BME280;63165;43.016;25.784;2022-09-27T09:14:47;98749.44;;;23.88;76.05
9523;BME280;63165;43.016;25.784;2022-09-27T09:17:26;98750.81;;;24.01;74.47
9523;BME280;63165;43.016;25.784;2022-09-27T09:20:09;98751.81;;;24.10;73.24
9523;BME280;63165;43.016;25.784;2022-09-27T09:22:55;98742.34;;;24.26;73.67
9523;BME280;63165;43.016;25.784;2022-09-27T09:25:31;98735.69;;;24.39;73.31
9523;BME280;63165;43.016;25.784;2022-09-27T09:28:13;98731.84;;;24.52;73.10
9523;BME280;63165;43.016;25.784;2022-09-27T09:30:49;98721.69;;;24.65;73.39
9523;BME280;63165;43.016;25.784;2022-09-27T09:33:22;98709.94;;;24.76;72.41
9523;BME280;63165;43.016;25.784;2022-09-27T09:35:54;98714.84;;;24.80;71.51
9523;BME280;63165;43.016;25.784;2022-09-27T09:38:33;98695.22;;;24.90;70.94
9523;BME280;63165;43.016;25.784;2022-09-27T09:41:05;98696.25;;;25.07;71.14
9523;BME280;63165;43.016;25.784;2022-09-27T09:43:37;98677.59;;;25.15;70.59
9523;BME280;63165;43.016;25.784;2022-09-27T09:46:09;98682.06;;;25.24;70.07
9523;BME280;63165;43.016;25.784;2022-09-27T09:48:42;98678.31;;;25.35;70.38
9523;BME280;63165;43.016;25.784;2022-09-27T09:51:16;98686.25;;;25.45;69.70
9523;BME280;63165;43.016;25.784;2022-09-27T09:53:51;98681.34;;;25.58;68.25
9523;BME280;63165;43.016;25.784;2022-09-27T09:56:21;98669.69;;;25.67;68.71
9523;BME280;63165;43.016;25.784;2022-09-27T09:58:53;98666.59;;;25.80;68.50
9523;BME280;63165;43.016;25.784;2022-09-27T10:01:26;98656.63;;;25.90;66.47
9523;BME280;63165;43.016;25.784;2022-09-27T10:03:55;98651.81;;;25.94;64.61
9523;BME280;63165;43.016;25.784;2022-09-27T10:06:23;98656.91;;;26.05;63.93
9523;BME280;63165;43.016;25.784;2022-09-27T10:08:52;98643.88;;;26.10;64.47
9523;BME280;63165;43.016;25.784;2022-09-27T10:11:23;98661.03;;;26.26;63.93
9523;BME280;63165;43.016;25.784;2022-09-27T10:13:51;98657.06;;;26.30;62.31
9523;BME280;63165;43.016;25.784;2022-09-27T10:16:20;98662.75;;;26.35;61.65
9523;BME280;63165;43.016;25.784;2022-09-27T10:18:52;98661.63;;;26.38;59.52
9523;BME280;63165;43.016;25.784;2022-09-27T10:21:24;98665.19;;;26.54;57.76
9523;BME280;63165;43.016;25.784;2022-09-27T10:24:08;98668.59;;;26.65;56.02
9523;BME280;63165;43.016;25.784;2022-09-27T10:26:37;98666.28;;;26.70;55.83
9523;BME280;63165;43.016;25.784;2022-09-27T10:29:19;98644.47;;;26.65;53.17
9523;BME280;63165;43.016;25.784;2022-09-27T10:31:48;98614.28;;;26.63;53.24
9523;BME280;63165;43.016;25.784;2022-09-27T10:34:23;98614.63;;;26.68;53.49
9523;BME280;63165;43.016;25.784;2022-09-27T10:37:12;98592.50;;;26.66;52.33
9523;BME280;63165;43.016;25.784;2022-09-27T10:39:42;98600.91;;;26.71;51.94
9523;BME280;63165;43.016;25.784;2022-09-27T10:42:30;98622.69;;;26.68;50.80
9523;BME280;63165;43.016;25.784;2022-09-27T10:45:24;98614.47;;;26.78;51.42
9523;BME280;63165;43.016;25.784;2022-09-27T10:47:53;98622.38;;;26.87;51.06
9523;BME280;63165;43.016;25.784;2022-09-27T10:50:23;98636.34;;;26.99;50.36
9523;BME280;63165;43.016;25.784;2022-09-27T10:53:01;98642.53;;;27.08;51.17
9523;BME280;63165;43.016;25.784;2022-09-27T10:55:32;98640.56;;;27.18;50.56
9523;BME280;63165;43.016;25.784;2022-09-27T10:58:00;98627.81;;;27.28;49.70
9523;BME280;63165;43.016;25.784;2022-09-27T11:00:30;98625.97;;;27.45;49.54
9523;BME280;63165;43.016;25.784;2022-09-27T11:03:00;98613.88;;;27.58;49.51
9523;BME280;63165;43.016;25.784;2022-09-27T11:05:34;98624.28;;;27.69;49.08
9523;BME280;63165;43.016;25.784;2022-09-27T11:08:20;98624.09;;;27.79;48.36
9523;BME280;63165;43.016;25.784;2022-09-27T11:11:06;98617.03;;;27.86;48.20
9523;BME280;63165;43.016;25.784;2022-09-27T11:13:34;98622.22;;;27.87;48.14
9523;BME280;63165;43.016;25.784;2022-09-27T11:16:15;98626.56;;;27.88;47.08
9523;BME280;63165;43.016;25.784;2022-09-27T11:18:51;98619.41;;;27.89;46.96
9523;BME280;63165;43.016;25.784;2022-09-27T11:21:28;98611.84;;;27.93;46.28
9523;BME280;63165;43.016;25.784;2022-09-27T11:24:15;98608.28;;;27.92;46.72
9523;BME280;63165;43.016;25.784;2022-09-27T11:26:54;98612.50;;;27.95;46.58
9523;BME280;63165;43.016;25.784;2022-09-27T11:29:33;98626.09;;;27.93;45.81
9523;BME280;63165;43.016;25.784;2022-09-27T11:32:15;98631.28;;;27.86;45.92
9523;BME280;63165;43.016;25.784;2022-09-27T11:34:53;98617.41;;;27.66;46.49
9523;BME280;63165;43.016;25.784;2022-09-27T11:37:31;98612.66;;;27.77;47.19
9523;BME280;63165;43.016;25.784;2022-09-27T11:40:19;98624.25;;;27.77;49.01
9523;BME280;63165;43.016;25.784;2022-09-27T11:43:19;98602.94;;;27.67;50.68
9523;BME280;63165;43.016;25.784;2022-09-27T11:45:55;98593.88;;;27.68;51.26
9523;BME280;63165;43.016;25.784;2022-09-27T11:48:44;98596.19;;;27.88;52.42
9523;BME280;63165;43.016;25.784;2022-09-27T11:51:37;98580.09;;;27.80;52.35
9523;BME280;63165;43.016;25.784;2022-09-27T11:54:20;98588.44;;;27.85;52.70
9523;BME280;63165;43.016;25.784;2022-09-27T11:56:58;98602.75;;;28.02;52.49
9523;BME280;63165;43.016;25.784;2022-09-27T12:02:40;98597.16;;;28.12;50.94
9523;BME280;63165;43.016;25.784;2022-09-27T12:05:24;98594.75;;;28.17;49.75
9523;BME280;63165;43.016;25.784;2022-09-27T12:08:07;98604.56;;;28.41;49.26
9523;BME280;63165;43.016;25.784;2022-09-27T12:10:41;98597.38;;;28.41;49.01
9523;BME280;63165;43.016;25.784;2022-09-27T12:13:13;98601.53;;;28.52;48.49
9523;BME280;63165;43.016;25.784;2022-09-27T12:15:45;98596.28;;;28.59;48.60
9523;BME280;63165;43.016;25.784;2022-09-27T12:18:26;98589.91;;;28.60;48.97
9523;BME280;63165;43.016;25.784;2022-09-27T12:20:58;98586.66;;;28.64;48.87
9523;BME280;63165;43.016;25.784;2022-09-27T12:23:35;98588.81;;;28.69;48.61
9523;BME280;63165;43.016;25.784;2022-09-27T12:26:10;98596.78;;;28.62;49.03
9523;BME280;63165;43.016;25.784;2022-09-27T12:28:43;98590.94;;;28.51;49.75
9523;BME280;63165;43.016;25.784;2022-09-27T12:31:16;98591.31;;;28.39;50.33
9523;BME280;63165;43.016;25.784;2022-09-27T12:33:50;98589.38;;;28.17;50.83
9523;BME280;63165;43.016;25.784;2022-09-27T12:36:23;98593.81;;;28.01;51.76
9523;BME280;63165;43.016;25.784;2022-09-27T12:38:59;98595.53;;;27.86;52.15
9523;BME280;63165;43.016;25.784;2022-09-27T12:41:34;98593.38;;;27.73;52.79
9523;BME280;63165;43.016;25.784;2022-09-27T12:44:03;98600.13;;;27.61;53.44
9523;BME280;63165;43.016;25.784;2022-09-27T12:46:38;98605.84;;;27.49;54.22
9523;BME280;63165;43.016;25.784;2022-09-27T12:49:13;98591.75;;;27.39;54.87
9523;BME280;63165;43.016;25.784;2022-09-27T12:51:46;98589.22;;;27.29;55.28
9523;BME280;63165;43.016;25.784;2022-09-27T12:54:30;98602.13;;;27.18;55.37
9523;BME280;63165;43.016;25.784;2022-09-27T12:57:15;98531.31;;;26.69;55.64
9523;BME280;63165;43.016;25.784;2022-09-27T13:00:02;98598.41;;;27.02;56.24
9523;BME280;63165;43.016;25.784;2022-09-27T13:11:38;98639.28;;;26.71;55.43
9523;BME280;63165;43.016;25.784;2022-09-27T13:14:16;98646.47;;;26.63;55.87
9523;BME280;63165;43.016;25.784;2022-09-27T13:16:45;98634.00;;;26.53;55.80
9523;BME280;63165;43.016;25.784;2022-09-27T13:19:37;98625.41;;;26.42;56.34
9523;BME280;63165;43.016;25.784;2022-09-27T13:22:08;98626.91;;;26.36;56.02
9523;BME280;63165;43.016;25.784;2022-09-27T13:24:40;98623.03;;;26.30;56.04
9523;BME280;63165;43.016;25.784;2022-09-27T13:27:38;98633.09;;;26.28;56.53
9523;BME280;63165;43.016;25.784;2022-09-27T13:33:38;98616.16;;;26.28;56.98
9523;BME280;63165;43.016;25.784;2022-09-27T13:36:23;98612.75;;;26.18;56.51
9523;BME280;63165;43.016;25.784;2022-09-27T13:39:15;98624.81;;;26.22;56.39
9523;BME280;63165;43.016;25.784;2022-09-27T13:42:06;98623.16;;;26.21;56.07
9523;BME280;63165;43.016;25.784;2022-09-27T13:44:58;98616.09;;;26.11;56.16
9523;BME280;63165;43.016;25.784;2022-09-27T13:47:33;98629.06;;;26.24;56.20